createdAt,value
2022-08-02T00:00:46.798Z,27.24
2022-08-02T00:03:15.215Z,27.30
2022-08-02T00:05:52.900Z,27.33
2022-08-02T00:08:21.868Z,27.35
2022-08-02T00:10:50.452Z,27.39
2022-08-02T00:13:18.928Z,27.42
2022-08-02T00:15:47.428Z,27.43
2022-08-02T00:18:16.065Z,27.46
2022-08-02T00:20:45.837Z,27.47
2022-08-02T00:23:14.296Z,27.48
2022-08-02T00:25:55.340Z,27.46
2022-08-02T00:28:27.850Z,27.45
2022-08-02T00:30:57.328Z,27.41
2022-08-02T00:34:05.192Z,27.36
2022-08-02T00:36:16.363Z,27.26
2022-08-02T00:38:45.146Z,27.19
2022-08-02T00:41:16.781Z,27.11
2022-08-02T00:43:46.098Z,27.04
2022-08-02T00:46:15.530Z,26.99
2022-08-02T00:48:44.463Z,26.94
2022-08-02T00:51:15.880Z,26.91
2022-08-02T00:53:44.342Z,26.90
2022-08-02T00:56:12.851Z,26.86
2022-08-02T00:58:41.330Z,26.84
2022-08-02T01:01:09.854Z,26.80
2022-08-02T01:03:38.298Z,26.76
2022-08-02T01:06:14.370Z,26.73
2022-08-02T01:08:44.498Z,26.69
2022-08-02T01:11:13.098Z,26.67
2022-08-02T01:13:41.641Z,26.65
2022-08-02T01:16:19.409Z,26.64
2022-08-02T01:18:54.220Z,26.65
2022-08-02T01:21:39.981Z,26.65
2022-08-02T01:24:36.650Z,26.64
2022-08-02T01:27:22.164Z,26.65
2022-08-02T01:29:57.801Z,26.66
2022-08-02T01:32:32.793Z,26.67
2022-08-02T01:35:10.191Z,26.67
2022-08-02T01:37:45.681Z,26.68
2022-08-02T01:40:22.780Z,26.70
2022-08-02T01:42:57.886Z,26.73
2022-08-02T01:45:34.732Z,26.77
2022-08-02T01:48:04.719Z,26.82
2022-08-02T01:50:37.520Z,26.85
2022-08-02T01:53:11.922Z,26.88
2022-08-02T01:55:57.465Z,26.90
2022-08-02T01:58:30.694Z,26.93
2022-08-02T02:01:02.239Z,26.94
2022-08-02T02:03:33.750Z,26.97
2022-08-02T02:06:06.573Z,26.98
2022-08-02T02:08:39.868Z,26.96
2022-08-02T02:12:06.175Z,26.96
2022-08-02T02:14:01.921Z,26.90
2022-08-02T02:16:33.269Z,26.89
2022-08-02T02:19:04.399Z,26.84
2022-08-02T02:21:35.048Z,26.81
2022-08-02T02:24:04.030Z,26.78
2022-08-02T02:26:37.184Z,26.77
2022-08-02T02:29:10.233Z,26.75
2022-08-02T02:31:43.991Z,26.71
2022-08-02T02:34:17.455Z,26.70
2022-08-02T02:36:51.597Z,26.69
2022-08-02T02:39:26.013Z,26.66
2022-08-02T02:41:56.224Z,26.68
2022-08-02T02:44:26.834Z,26.67
2022-08-02T02:46:57.884Z,26.65
2022-08-02T02:49:27.938Z,26.63
2022-08-02T02:51:58.865Z,26.62
2022-08-02T02:54:33.706Z,26.60
2022-08-02T02:57:05.501Z,26.56
2022-08-02T02:59:36.000Z,26.52
2022-08-02T03:02:07.455Z,26.45
2022-08-02T03:04:55.646Z,26.41
2022-08-02T03:07:25.530Z,26.36
2022-08-02T03:09:55.044Z,26.32
2022-08-02T03:12:31.528Z,26.27
2022-08-02T03:15:04.099Z,26.25
2022-08-02T03:17:47.310Z,26.18
2022-08-02T03:20:18.371Z,26.16
2022-08-02T03:22:48.463Z,26.14
2022-08-02T03:25:18.818Z,26.13
2022-08-02T03:27:47.503Z,26.10
2022-08-02T03:30:16.499Z,26.08
2022-08-02T03:32:49.476Z,26.04
2022-08-02T03:35:23.987Z,26.02
2022-08-02T03:37:55.455Z,26.01
2022-08-02T03:40:24.731Z,25.99
2022-08-02T03:42:53.735Z,25.97
2022-08-02T03:45:22.668Z,25.97
2022-08-02T03:47:53.004Z,25.95
2022-08-02T03:50:23.023Z,25.96
2022-08-02T03:52:52.453Z,25.95
2022-08-02T03:55:21.006Z,25.93
2022-08-02T03:57:49.919Z,25.92
2022-08-02T04:00:21.947Z,25.91
2022-08-02T04:02:51.950Z,25.93
2022-08-02T04:05:21.141Z,25.94
2022-08-02T04:08:33.017Z,25.96
2022-08-02T04:10:54.062Z,25.98
2022-08-02T04:13:27.455Z,25.98
2022-08-02T04:16:09.536Z,25.98
2022-08-02T04:18:46.393Z,25.98
2022-08-02T04:21:18.562Z,26.00
2022-08-02T04:23:49.833Z,26.02
2022-08-02T04:26:19.190Z,26.05
2022-08-02T04:28:56.916Z,26.06
2022-08-02T04:31:25.906Z,26.08
2022-08-02T04:33:56.650Z,26.10
2022-08-02T04:36:31.716Z,26.13
2022-08-02T04:39:00.786Z,26.17
2022-08-02T04:41:41.062Z,26.17
2022-08-02T04:44:12.897Z,26.24
2022-08-02T04:46:43.387Z,26.28
2022-08-02T04:49:13.664Z,26.34
2022-08-02T04:51:44.845Z,26.39
2022-08-02T04:54:13.638Z,26.46
2022-08-02T04:56:42.656Z,26.50
2022-08-02T04:59:12.509Z,26.56
2022-08-02T05:01:42.524Z,26.73
2022-08-02T05:04:12.326Z,26.96
2022-08-02T05:06:40.935Z,27.14
2022-08-02T05:09:09.369Z,27.20
2022-08-02T05:11:37.784Z,27.26
2022-08-02T05:14:06.733Z,27.29
2022-08-02T05:16:35.144Z,27.35
2022-08-02T05:19:04.231Z,27.43
2022-08-02T05:21:34.072Z,27.50
2022-08-02T05:24:02.616Z,27.58
2022-08-02T05:26:31.097Z,27.66
2022-08-02T05:28:59.478Z,27.77
2022-08-02T05:31:27.914Z,27.87
2022-08-02T05:33:56.295Z,28.02
2022-08-02T05:36:24.770Z,28.15
2022-08-02T05:38:59.811Z,28.30
2022-08-02T05:41:33.697Z,28.51
2022-08-02T05:44:02.174Z,28.70
2022-08-02T05:46:30.589Z,28.88
2022-08-02T05:48:59.044Z,29.02
2022-08-02T05:51:37.838Z,29.17
2022-08-02T05:54:20.101Z,29.26
2022-08-02T05:56:53.704Z,29.35
2022-08-02T05:59:33.048Z,29.41
2022-08-02T06:02:21.362Z,29.47
2022-08-02T06:05:00.450Z,29.51
2022-08-02T06:07:30.920Z,29.56
2022-08-02T06:10:01.012Z,29.64
2022-08-02T06:12:33.201Z,29.80
2022-08-02T06:15:02.606Z,30.03
2022-08-02T06:17:31.896Z,30.25
2022-08-02T06:20:03.289Z,30.50
2022-08-02T06:22:36.912Z,30.71
2022-08-02T06:25:11.586Z,30.85
2022-08-02T06:27:59.360Z,30.94
2022-08-02T06:30:28.231Z,30.96
2022-08-02T06:32:57.733Z,30.97
2022-08-02T06:35:34.105Z,30.96
2022-08-02T06:38:04.360Z,30.93
2022-08-02T06:40:41.140Z,30.94
2022-08-02T06:43:19.080Z,30.90
2022-08-02T06:45:47.643Z,30.81
2022-08-02T06:48:16.549Z,30.68
2022-08-02T06:50:45.029Z,30.57
2022-08-02T06:53:14.015Z,30.48
2022-08-02T06:55:45.665Z,30.38
2022-08-02T06:58:14.519Z,30.29
2022-08-02T07:00:43.908Z,30.21
2022-08-02T07:03:12.495Z,30.16
2022-08-02T07:05:42.084Z,30.13
2022-08-02T07:08:10.496Z,30.08
2022-08-02T07:10:38.891Z,30.01
2022-08-02T07:13:08.687Z,29.93
2022-08-02T07:15:37.807Z,29.86
2022-08-02T07:18:06.836Z,29.81
2022-08-02T07:20:35.268Z,29.79
2022-08-02T07:23:03.695Z,29.78
2022-08-02T07:26:02.762Z,29.79
2022-08-02T07:28:24.544Z,29.82
2022-08-02T07:30:53.350Z,29.91
2022-08-02T07:33:38.135Z,30.00
2022-08-02T07:36:09.844Z,30.13
2022-08-02T07:38:45.714Z,30.27
2022-08-02T07:41:15.389Z,30.41
2022-08-02T07:43:45.133Z,30.51
2022-08-02T07:46:13.588Z,30.64
2022-08-02T07:48:42.215Z,30.75
2022-08-02T07:51:15.438Z,30.87
2022-08-02T07:53:51.141Z,30.99
2022-08-02T07:56:30.784Z,31.09
2022-08-02T07:59:00.586Z,31.18
2022-08-02T08:01:29.151Z,31.31
2022-08-02T08:03:57.779Z,31.44
2022-08-02T08:06:29.113Z,31.56
2022-08-02T08:08:57.805Z,31.67
2022-08-02T08:11:26.427Z,31.67
2022-08-02T08:13:55.002Z,31.60
2022-08-02T08:16:26.342Z,31.49
2022-08-02T08:18:54.763Z,31.46
2022-08-02T08:21:23.432Z,31.53
2022-08-02T08:23:51.886Z,31.69
2022-08-02T08:26:20.277Z,31.85
2022-08-02T08:28:48.729Z,32.06
2022-08-02T08:31:17.242Z,32.16
2022-08-02T08:33:47.034Z,32.19
2022-08-02T08:36:16.706Z,32.26
2022-08-02T08:38:45.140Z,32.35
2022-08-02T08:41:13.537Z,32.43
2022-08-02T08:43:41.948Z,32.50
2022-08-02T08:46:13.174Z,32.58
2022-08-02T08:48:47.609Z,32.61
2022-08-02T08:51:22.957Z,32.54
2022-08-02T08:53:54.801Z,32.56
2022-08-02T08:56:24.115Z,32.61
2022-08-02T08:58:52.536Z,32.65
2022-08-02T09:01:21.710Z,32.68
2022-08-02T09:03:50.159Z,32.70
2022-08-02T09:06:20.604Z,32.69
2022-08-02T09:08:49.215Z,32.53
2022-08-02T09:11:20.305Z,32.24
2022-08-02T09:13:54.697Z,31.99
2022-08-02T09:16:35.959Z,31.87
2022-08-02T09:19:20.940Z,31.85
2022-08-02T09:21:52.883Z,31.83
2022-08-02T09:24:23.891Z,31.78
2022-08-02T09:26:53.189Z,31.80
2022-08-02T09:29:25.545Z,31.83
2022-08-02T09:32:04.824Z,31.88
2022-08-02T09:34:47.838Z,31.87
2022-08-02T09:37:32.224Z,31.92
2022-08-02T09:40:02.893Z,31.92
2022-08-02T09:42:31.508Z,31.90
2022-08-02T09:45:02.151Z,31.90
2022-08-02T09:47:32.471Z,31.94
2022-08-02T09:50:06.855Z,32.01
2022-08-02T09:52:43.528Z,32.09
2022-08-02T09:55:13.468Z,32.21
2022-08-02T09:57:42.009Z,32.33
2022-08-02T10:00:16.148Z,32.37
2022-08-02T10:03:08.304Z,32.41
2022-08-02T10:05:55.682Z,32.56
2022-08-02T10:08:27.141Z,32.78
2022-08-02T10:11:01.610Z,32.94
2022-08-02T10:13:32.813Z,33.06
2022-08-02T10:16:02.570Z,33.19
2022-08-02T10:18:40.701Z,33.30
2022-08-02T10:21:16.466Z,33.37
2022-08-02T10:23:50.187Z,33.45
2022-08-02T10:26:21.273Z,33.48
2022-08-02T10:28:51.197Z,33.47
2022-08-02T10:31:26.627Z,33.44
2022-08-02T10:33:57.221Z,33.40
2022-08-02T10:36:27.379Z,33.31
2022-08-02T10:38:59.765Z,33.27
2022-08-02T10:41:49.114Z,33.24
2022-08-02T10:44:29.455Z,33.30
2022-08-02T10:47:24.871Z,33.27
2022-08-02T10:49:55.700Z,33.29
2022-08-02T10:52:25.755Z,33.39
2022-08-02T10:55:00.171Z,33.70
2022-08-02T10:57:30.987Z,34.20
2022-08-02T11:00:03.123Z,34.75
2022-08-02T11:02:41.732Z,35.30
2022-08-02T11:05:16.784Z,35.81
2022-08-02T11:07:49.333Z,36.20
2022-08-02T11:10:46.848Z,36.53
2022-08-02T11:13:19.594Z,37.02
2022-08-02T11:15:55.340Z,37.48
2022-08-02T11:18:25.610Z,37.65
2022-08-02T11:21:23.341Z,37.80
2022-08-02T11:23:52.444Z,38.13
2022-08-02T11:26:47.081Z,38.60
2022-08-02T11:29:16.235Z,39.12
2022-08-02T11:31:47.177Z,39.62
2022-08-02T11:34:37.746Z,39.96
2022-08-02T11:37:07.743Z,40.40
2022-08-02T11:39:36.225Z,40.86
2022-08-02T11:42:06.318Z,41.37
2022-08-02T11:44:43.300Z,41.83
2022-08-02T11:47:12.689Z,42.37
2022-08-02T11:49:41.280Z,42.53
2022-08-02T11:52:12.109Z,42.21
2022-08-02T11:54:43.343Z,41.75
2022-08-02T11:57:20.506Z,41.61
2022-08-02T11:59:52.413Z,41.77
2022-08-02T12:02:22.938Z,42.07
2022-08-02T12:04:58.201Z,42.15
2022-08-02T12:07:35.451Z,41.95
2022-08-02T12:10:08.727Z,42.07
2022-08-02T12:12:51.891Z,42.45
2022-08-02T12:15:34.890Z,42.87
2022-08-02T12:18:22.480Z,43.12
2022-08-02T12:20:50.905Z,43.21
2022-08-02T12:23:19.315Z,42.85
2022-08-02T12:25:47.754Z,42.72
2022-08-02T12:28:22.512Z,43.01
2022-08-02T12:30:53.657Z,43.34
2022-08-02T12:33:23.933Z,43.62
2022-08-02T12:35:52.831Z,43.91
2022-08-02T12:38:21.587Z,44.36
2022-08-02T12:40:51.315Z,44.86
2022-08-02T12:43:25.294Z,45.40
2022-08-02T12:45:56.622Z,46.08
2022-08-02T12:48:56.631Z,46.56
2022-08-02T12:51:55.615Z,46.26
2022-08-02T12:54:31.755Z,45.95
2022-08-02T12:57:11.680Z,46.05
2022-08-02T12:59:44.617Z,46.39
2022-08-02T13:02:17.019Z,46.88
2022-08-02T13:04:50.021Z,47.44
2022-08-02T13:07:19.389Z,47.89
2022-08-02T13:09:48.918Z,47.96
2022-08-02T13:12:18.049Z,47.45
2022-08-02T13:14:48.004Z,46.86
2022-08-02T13:17:16.426Z,46.61
2022-08-02T13:19:44.861Z,46.03
2022-08-02T13:22:13.626Z,45.28
2022-08-02T13:24:56.594Z,45.04
2022-08-02T13:27:26.175Z,44.93
2022-08-02T13:29:57.296Z,44.69
2022-08-02T13:32:27.987Z,44.31
2022-08-02T13:34:56.747Z,43.66
2022-08-02T13:37:25.372Z,42.96
2022-08-02T13:40:20.115Z,42.32
2022-08-02T13:42:43.052Z,41.82
2022-08-02T13:45:14.414Z,41.79
2022-08-02T13:48:03.856Z,42.11
2022-08-02T13:50:32.746Z,42.94
2022-08-02T13:53:01.293Z,43.68
2022-08-02T13:55:29.955Z,44.52
2022-08-02T13:57:58.449Z,45.29
2022-08-02T14:00:35.286Z,45.99
2022-08-02T14:03:06.950Z,46.74
2022-08-02T14:05:47.623Z,47.44
2022-08-02T14:08:18.459Z,47.85
2022-08-02T14:10:48.035Z,47.68
2022-08-02T14:13:16.645Z,47.47
2022-08-02T14:15:46.925Z,47.73
2022-08-02T14:18:15.910Z,47.54
2022-08-02T14:20:44.960Z,46.85
2022-08-02T14:23:13.682Z,45.98
2022-08-02T14:25:42.252Z,45.62
2022-08-02T14:28:10.746Z,45.90
2022-08-02T14:30:39.292Z,46.36
2022-08-02T14:33:09.296Z,46.87
2022-08-02T14:35:37.807Z,47.47
2022-08-02T14:38:07.555Z,48.05
2022-08-02T14:40:36.060Z,48.56
2022-08-02T14:43:05.062Z,49.15
2022-08-02T14:45:40.217Z,49.65
2022-08-02T14:48:12.176Z,49.74
2022-08-02T14:50:40.737Z,49.79
2022-08-02T14:53:12.734Z,50.00
2022-08-02T14:55:43.358Z,50.34
2022-08-02T14:58:12.552Z,50.71
2022-08-02T15:00:41.906Z,50.93
2022-08-02T15:03:14.088Z,51.01
2022-08-02T15:05:42.527Z,51.17
2022-08-02T15:08:10.956Z,51.51
2022-08-02T15:10:40.286Z,51.91
2022-08-02T15:13:08.707Z,52.13
2022-08-02T15:15:40.477Z,52.21
2022-08-02T15:18:13.996Z,52.29
2022-08-02T15:20:47.120Z,52.40
2022-08-02T15:23:37.245Z,52.41
2022-08-02T15:26:06.907Z,52.32
2022-08-02T15:28:35.740Z,52.11
2022-08-02T15:31:04.317Z,51.97
2022-08-02T15:33:34.088Z,51.95
2022-08-02T15:36:02.567Z,51.86
2022-08-02T15:38:31.034Z,51.49
2022-08-02T15:40:59.425Z,50.17
2022-08-02T15:43:27.969Z,48.63
2022-08-02T15:45:56.514Z,47.25
2022-08-02T15:48:24.866Z,46.00
2022-08-02T15:50:54.761Z,44.90
2022-08-02T15:53:23.155Z,43.87
2022-08-02T15:56:05.508Z,42.90
2022-08-02T15:58:36.106Z,41.97
2022-08-02T16:01:12.891Z,41.18
2022-08-02T16:03:41.369Z,40.52
2022-08-02T16:06:11.970Z,39.87
2022-08-02T16:08:45.514Z,39.36
2022-08-02T16:11:22.683Z,38.86
2022-08-02T16:13:53.531Z,38.46
2022-08-02T16:16:23.725Z,38.14
2022-08-02T16:18:52.431Z,37.83
2022-08-02T16:21:23.555Z,37.58
2022-08-02T16:23:58.996Z,37.34
2022-08-02T16:26:31.889Z,37.11
2022-08-02T16:29:01.700Z,36.90
2022-08-02T16:31:30.347Z,36.69
2022-08-02T16:33:58.999Z,36.50
2022-08-02T16:36:29.301Z,36.32
2022-08-02T16:38:58.216Z,36.16
2022-08-02T16:41:50.672Z,35.99
2022-08-02T16:44:15.180Z,35.79
2022-08-02T16:46:45.734Z,35.62
2022-08-02T16:50:04.967Z,35.48
2022-08-02T16:52:04.149Z,35.35
2022-08-02T16:54:32.678Z,35.27
2022-08-02T16:57:03.261Z,35.23
2022-08-02T16:59:42.726Z,35.17
2022-08-02T17:02:18.111Z,35.07
2022-08-02T17:04:48.105Z,34.95
2022-08-02T17:08:16.336Z,34.81
2022-08-02T17:10:09.220Z,34.66
2022-08-02T17:12:38.849Z,34.54
2022-08-02T17:16:01.428Z,34.43
2022-08-02T17:17:57.473Z,34.33
2022-08-02T17:20:26.158Z,34.26
2022-08-02T17:22:56.328Z,34.17
2022-08-02T17:25:31.973Z,34.09
2022-08-02T17:28:01.181Z,34.01
2022-08-02T17:30:29.707Z,33.91
2022-08-02T17:32:59.343Z,33.81
2022-08-02T17:35:43.359Z,33.74
2022-08-02T17:38:26.138Z,33.64
2022-08-02T17:40:55.246Z,33.53
2022-08-02T17:43:29.369Z,33.44
2022-08-02T17:45:59.901Z,33.35
2022-08-02T17:48:54.939Z,33.25
2022-08-02T17:52:14.935Z,33.17
2022-08-02T17:54:14.680Z,33.07
2022-08-02T17:56:48.089Z,33.00
2022-08-02T17:59:20.641Z,32.92
2022-08-02T18:01:53.245Z,32.83
2022-08-02T18:04:27.568Z,32.76
2022-08-02T18:06:59.354Z,32.67
2022-08-02T18:09:34.611Z,32.59
2022-08-02T18:12:03.220Z,32.50
2022-08-02T18:14:31.638Z,32.43
2022-08-02T18:17:00.041Z,32.36
2022-08-02T18:19:42.219Z,32.28
2022-08-02T18:22:11.668Z,32.19
2022-08-02T18:24:41.808Z,32.11
2022-08-02T18:27:14.157Z,32.02
2022-08-02T18:29:42.734Z,31.93
2022-08-02T18:32:12.086Z,31.83
2022-08-02T18:34:40.787Z,31.74
2022-08-02T18:37:17.730Z,31.65
2022-08-02T18:39:51.406Z,31.56
2022-08-02T18:42:20.306Z,31.49
2022-08-02T18:44:48.713Z,31.42
2022-08-02T18:47:17.175Z,31.36
2022-08-02T18:49:46.786Z,31.30
2022-08-02T18:52:30.765Z,31.23
2022-08-02T18:55:01.051Z,31.18
2022-08-02T18:58:17.260Z,31.12
2022-08-02T19:00:20.561Z,31.09
2022-08-02T19:02:55.099Z,31.06
2022-08-02T19:05:24.400Z,31.01
2022-08-02T19:08:12.948Z,30.96
2022-08-02T19:10:49.133Z,30.93
2022-08-02T19:13:19.028Z,30.90
2022-08-02T19:15:47.978Z,30.86
2022-08-02T19:18:16.467Z,30.79
2022-08-02T19:20:48.072Z,30.75
2022-08-02T19:23:17.388Z,30.69
2022-08-02T19:25:54.557Z,30.63
2022-08-02T19:28:26.197Z,30.56
2022-08-02T19:30:55.743Z,30.50
2022-08-02T19:33:25.071Z,30.47
2022-08-02T19:36:13.567Z,30.40
2022-08-02T19:38:49.146Z,30.36
2022-08-02T19:41:22.162Z,30.30
2022-08-02T19:44:27.559Z,30.26
2022-08-02T19:46:41.533Z,30.21
2022-08-02T19:49:20.118Z,30.17
2022-08-02T19:51:58.619Z,30.12
2022-08-02T19:54:35.818Z,30.08
2022-08-02T19:57:19.281Z,30.03
2022-08-02T19:59:48.110Z,30.00
2022-08-02T20:02:19.021Z,29.98
2022-08-02T20:04:50.055Z,29.94
2022-08-02T20:07:50.053Z,29.93
2022-08-02T20:10:11.567Z,29.88
2022-08-02T20:12:42.692Z,29.82
2022-08-02T20:15:14.748Z,29.80
2022-08-02T20:17:47.498Z,29.77
2022-08-02T20:20:18.534Z,29.73
2022-08-02T20:23:00.795Z,29.72
2022-08-02T20:25:29.440Z,29.70
2022-08-02T20:27:59.220Z,29.68
2022-08-02T20:30:27.874Z,29.68
2022-08-02T20:35:47.810Z,29.61
2022-08-02T20:38:16.490Z,29.58
2022-08-02T20:40:44.957Z,29.54
2022-08-02T20:43:14.735Z,29.49
2022-08-02T20:45:46.801Z,29.46
2022-08-02T20:48:15.218Z,29.42
2022-08-02T20:50:52.120Z,29.40
2022-08-02T20:53:24.058Z,29.36
2022-08-02T20:55:56.606Z,29.31
2022-08-02T20:58:27.747Z,29.28
2022-08-02T21:00:59.434Z,29.24
2022-08-02T21:03:39.103Z,29.19
2022-08-02T21:06:09.907Z,29.15
2022-08-02T21:08:38.559Z,29.11
2022-08-02T21:11:09.645Z,29.06
2022-08-02T21:13:47.326Z,29.01
2022-08-02T21:16:31.059Z,28.97
2022-08-02T21:19:00.475Z,28.93
2022-08-02T21:21:29.613Z,28.90
2022-08-02T21:23:59.215Z,28.85
2022-08-02T21:26:31.041Z,28.83
2022-08-02T21:29:03.474Z,28.79
2022-08-02T21:31:35.706Z,28.75
2022-08-02T21:34:22.007Z,28.71
2022-08-02T21:36:54.142Z,28.68
2022-08-02T21:39:22.685Z,28.65
2022-08-02T21:41:51.346Z,28.62
2022-08-02T21:44:23.215Z,28.58
2022-08-02T21:46:54.121Z,28.57
2022-08-02T21:49:41.153Z,28.54
2022-08-02T21:52:13.401Z,28.50
2022-08-02T21:54:45.336Z,28.45
2022-08-02T21:57:16.168Z,28.42
2022-08-02T21:59:48.162Z,28.39
2022-08-02T22:02:30.659Z,28.36
2022-08-02T22:04:59.763Z,28.33
2022-08-02T22:07:38.330Z,28.30
2022-08-02T22:10:09.939Z,28.27
2022-08-02T22:12:38.480Z,28.25
2022-08-02T22:15:10.946Z,28.20
2022-08-02T22:17:50.986Z,28.19
2022-08-02T22:20:21.535Z,28.16
2022-08-02T22:22:51.344Z,28.14
2022-08-02T22:28:38.462Z,28.07
2022-08-02T22:31:04.636Z,28.05
2022-08-02T22:34:00.120Z,28.01
2022-08-02T22:36:31.414Z,27.96
2022-08-02T22:39:00.861Z,27.94
2022-08-02T22:42:01.374Z,27.91
2022-08-02T22:44:18.813Z,27.88
2022-08-02T22:46:50.502Z,27.86
2022-08-02T22:49:38.783Z,27.83
2022-08-02T22:52:08.552Z,27.81
2022-08-02T22:54:39.378Z,27.78
2022-08-02T22:57:11.337Z,27.75
2022-08-02T22:58:55.696Z,29.64
2022-08-02T22:59:11.025Z,28.12
2022-08-02T22:59:41.245Z,27.74
2022-08-02T23:02:12.123Z,27.69
2022-08-02T23:04:40.521Z,27.67
2022-08-02T23:07:08.983Z,27.66
2022-08-02T23:09:37.744Z,27.64
2022-08-02T23:12:06.969Z,27.61
2022-08-02T23:14:36.460Z,27.57
2022-08-02T23:17:22.472Z,27.54
2022-08-02T23:19:52.266Z,27.50
2022-08-02T23:22:21.818Z,27.46
2022-08-02T23:24:58.991Z,27.44
2022-08-02T23:27:27.492Z,27.41
2022-08-02T23:29:55.993Z,27.41
2022-08-02T23:32:25.901Z,27.38
2022-08-02T23:34:56.914Z,27.37
2022-08-02T23:37:26.135Z,27.34
2022-08-02T23:39:54.497Z,27.33
2022-08-02T23:42:25.384Z,27.31
2022-08-02T23:44:54.161Z,27.29
2022-08-02T23:47:23.179Z,27.25
2022-08-02T23:49:51.993Z,27.23
2022-08-02T23:52:22.003Z,27.19
2022-08-02T23:54:50.381Z,27.17
2022-08-02T23:57:20.579Z,27.15
2022-08-02T23:59:51.985Z,27.12
